Time;durP1;ratioP1;P1;durP2;ratioP2;P2;SDS_P1;SDS_P2;PMS_P1;PMS_P2;Temp;Humidity;BMP_temperature;BMP_pressure;BME280_temperature;BME280_humidity;BME280_pressure;Samples;Min_cycle;Max_cycle;Signal;HPM_P1;HPM_P2
2024/04/13 00:01:43;;;;;;;5.20;3.80;;;14.30;99.90;;;;;;5400847;26;20703;-72
2024/04/13 00:04:09;;;;;;;4.70;4.30;;;14.40;99.90;;;;;;5421574;26;20247;-74
2024/04/13 00:06:37;;;;;;;4.17;3.77;;;14.30;99.90;;;;;;5411701;26;20386;-74
2024/04/13 00:09:04;;;;;;;5.27;3.90;;;14.30;99.90;;;;;;5421318;26;20485;-72
2024/04/13 00:11:29;;;;;;;5.30;4.30;;;14.30;99.90;;;;;;5421441;26;20441;-73
2024/04/13 00:13:55;;;;;;;5.10;4.60;;;14.30;99.90;;;;;;5423120;26;20896;-71
2024/04/13 00:16:21;;;;;;;5.43;4.00;;;14.30;99.90;;;;;;5421869;26;20227;-73
2024/04/13 00:18:46;;;;;;;4.83;3.87;;;14.30;99.90;;;;;;5421749;26;20219;-71
2024/04/13 00:21:14;;;;;;;5.20;3.90;;;14.30;99.90;;;;;;5401307;26;20220;-71
2024/04/13 00:23:40;;;;;;;4.70;3.90;;;14.30;99.90;;;;;;5421702;26;20665;-72
2024/04/13 00:26:06;;;;;;;5.20;4.20;;;14.30;99.90;;;;;;5423013;26;20497;-71
2024/04/13 00:28:33;;;;;;;5.70;4.63;;;14.30;99.90;;;;;;5424100;26;20223;-71
2024/04/13 00:31:01;;;;;;;9.63;6.60;;;14.20;99.90;;;;;;5432750;26;20262;-70
2024/04/13 00:33:27;;;;;;;9.43;5.50;;;14.20;99.90;;;;;;5421706;26;20510;-72
2024/04/13 00:35:58;;;;;;;5.87;5.17;;;14.20;99.90;;;;;;5430212;26;20457;-71
2024/04/13 00:38:24;;;;;;;5.73;4.93;;;14.10;99.90;;;;;;5365909;26;20262;-71
2024/04/13 00:40:50;;;;;;;5.67;4.23;;;14.10;99.90;;;;;;5421236;26;20457;-73
2024/04/13 00:43:15;;;;;;;5.50;4.53;;;14.10;99.90;;;;;;5421021;26;20220;-71
2024/04/13 00:45:45;;;;;;;5.93;4.80;;;14.00;99.90;;;;;;5421199;26;20216;-73
2024/04/13 00:48:24;;;;;;;5.47;4.90;;;14.00;99.90;;;;;;5407141;26;20300;-74
2024/04/13 00:50:58;;;;;;;5.80;4.90;;;14.00;99.90;;;;;;5406955;26;20516;-73
2024/04/13 00:53:25;;;;;;;7.93;4.50;;;13.90;99.90;;;;;;5401027;26;20469;-72
2024/04/13 00:55:53;;;;;;;5.03;4.53;;;13.90;99.90;;;;;;5392304;26;20556;-71
2024/04/13 00:58:26;;;;;;;4.50;4.10;;;13.90;99.90;;;;;;5417721;26;20461;-70
2024/04/13 01:00:52;;;;;;;7.23;4.77;;;13.80;99.90;;;;;;5431865;26;20798;-72
2024/04/13 01:03:21;;;;;;;5.10;4.60;;;13.80;99.90;;;;;;5419789;26;20506;-71
2024/04/13 01:05:48;;;;;;;9.23;5.53;;;13.80;99.90;;;;;;5398039;26;20473;-72
2024/04/13 01:08:15;;;;;;;7.30;6.27;;;13.70;99.90;;;;;;5418265;26;20473;-72
2024/04/13 01:10:42;;;;;;;6.83;5.77;;;13.70;99.90;;;;;;5403871;26;20539;-71
2024/04/13 01:13:09;;;;;;;6.63;5.93;;;13.70;99.90;;;;;;5418722;26;20465;-70
2024/04/13 01:15:36;;;;;;;6.77;5.63;;;13.70;99.90;;;;;;5430254;26;20519;-72
2024/04/13 01:18:05;;;;;;;7.43;4.77;;;13.70;99.90;;;;;;5419429;26;20465;-72
2024/04/13 01:20:33;;;;;;;5.57;4.97;;;13.70;99.90;;;;;;5423563;26;20518;-71
2024/04/13 01:23:00;;;;;;;5.63;4.97;;;13.70;99.90;;;;;;5389363;26;20457;-73
2024/04/13 01:25:26;;;;;;;4.90;4.40;;;13.70;99.90;;;;;;5418752;26;20516;-70
2024/04/13 01:27:51;;;;;;;5.30;4.43;;;13.60;99.90;;;;;;5418729;26;20457;-71
2024/04/13 01:30:19;;;;;;;4.43;3.90;;;13.60;99.90;;;;;;5399882;26;20263;-71
2024/04/13 01:32:44;;;;;;;5.50;4.13;;;13.60;99.90;;;;;;5420927;26;20299;-71
2024/04/13 01:35:12;;;;;;;6.67;4.53;;;13.60;99.90;;;;;;5422265;26;20526;-72
2024/04/13 01:37:38;;;;;;;8.53;4.63;;;13.60;99.90;;;;;;5391982;26;20500;-70
2024/04/13 01:40:09;;;;;;;6.07;4.70;;;13.60;99.90;;;;;;5422837;26;20560;-70
2024/04/13 01:42:41;;;;;;;6.77;5.30;;;13.60;99.90;;;;;;5423031;26;20938;-70
2024/04/13 01:45:07;;;;;;;4.73;4.30;;;13.60;99.90;;;;;;5402929;26;20469;-70
2024/04/13 01:47:33;;;;;;;4.33;3.80;;;13.50;99.90;;;;;;5392993;26;20469;-72
2024/04/13 01:49:58;;;;;;;5.07;4.60;;;13.50;99.90;;;;;;5423088;26;20572;-69
2024/04/13 01:52:24;;;;;;;5.07;4.63;;;13.50;99.90;;;;;;5425479;26;20527;-71
2024/04/13 01:54:50;;;;;;;5.70;4.80;;;13.50;99.90;;;;;;5391224;26;20533;-69
2024/04/13 01:57:16;;;;;;;8.03;5.27;;;13.50;99.90;;;;;;5421694;26;20304;-72
2024/04/13 01:59:41;;;;;;;5.07;4.57;;;13.50;99.90;;;;;;5425321;26;20254;-71
2024/04/13 02:02:07;;;;;;;8.10;5.50;;;13.50;99.90;;;;;;5422144;26;20450;-70
2024/04/13 02:04:33;;;;;;;6.17;4.87;;;13.50;99.90;;;;;;5421880;26;20270;-70
2024/04/13 02:06:59;;;;;;;6.70;5.40;;;13.40;99.90;;;;;;5396399;26;20810;-72
2024/04/13 02:09:24;;;;;;;7.13;4.63;;;13.40;99.90;;;;;;5390390;26;20244;-72
2024/04/13 02:11:50;;;;;;;5.73;4.93;;;13.40;99.90;;;;;;5421986;26;20228;-72
2024/04/13 02:14:15;;;;;;;7.00;5.47;;;13.40;99.90;;;;;;5424323;26;20257;-71
2024/04/13 02:16:41;;;;;;;6.50;5.23;;;13.40;99.90;;;;;;5422459;26;20626;-71
2024/04/13 02:19:07;;;;;;;9.60;5.73;;;13.40;99.90;;;;;;5422782;26;20585;-71
2024/04/13 02:21:32;;;;;;;8.77;6.30;;;13.40;99.90;;;;;;5426611;26;20220;-70
2024/04/13 02:23:58;;;;;;;12.20;5.83;;;13.30;99.90;;;;;;5429935;26;20264;-70
2024/04/13 02:26:23;;;;;;;6.40;5.80;;;13.30;99.90;;;;;;5421397;26;20303;-70
2024/04/13 02:28:49;;;;;;;6.90;5.60;;;13.30;99.90;;;;;;5422389;26;20223;-71
2024/04/13 02:31:15;;;;;;;5.87;5.23;;;13.30;99.90;;;;;;5420726;26;20219;-70
2024/04/13 02:33:40;;;;;;;5.97;5.27;;;13.20;99.90;;;;;;5422263;26;20320;-71
2024/04/13 02:36:07;;;;;;;6.57;5.23;;;13.20;99.90;;;;;;5366356;26;20227;-69
2024/04/13 02:38:33;;;;;;;5.83;4.73;;;13.20;99.90;;;;;;5421716;26;20313;-70
2024/04/13 02:41:03;;;;;;;7.83;6.50;;;13.20;99.90;;;;;;5419307;26;21889;-75
2024/04/13 02:43:34;;;;;;;8.57;6.30;;;13.10;99.90;;;;;;5399148;26;20513;-71
2024/04/13 02:46:11;;;;;;;11.90;6.33;;;13.20;99.90;;;;;;5420913;26;20516;-70
2024/04/13 02:48:41;;;;;;;8.23;6.83;;;13.20;99.90;;;;;;5420893;26;20539;-71
2024/04/13 02:51:08;;;;;;;9.17;5.47;;;13.10;99.90;;;;;;5414845;26;20619;-71
2024/04/13 02:53:35;;;;;;;9.50;6.10;;;13.10;99.90;;;;;;5420677;26;20454;-70
2024/04/13 02:56:05;;;;;;;6.00;4.47;;;13.10;99.90;;;;;;5420699;26;20499;-71
2024/04/13 02:58:31;;;;;;;7.73;5.60;;;13.10;99.90;;;;;;5390113;26;20745;-72
2024/04/13 03:00:58;;;;;;;6.17;5.40;;;13.10;99.90;;;;;;5396432;26;20547;-69
2024/04/13 03:03:25;;;;;;;6.80;5.03;;;13.10;99.90;;;;;;5422587;26;20266;-70
2024/04/13 03:06:16;;;;;;;6.13;5.40;;;13.00;99.90;;;;;;5426851;26;20734;-69
2024/04/13 03:08:42;;;;;;;8.80;5.73;;;13.00;99.90;;;;;;5424568;26;20643;-72
2024/04/13 03:11:08;;;;;;;5.90;5.30;;;13.00;99.90;;;;;;5425441;26;20519;-68
2024/04/13 03:13:37;;;;;;;9.53;6.03;;;12.90;99.90;;;;;;5395240;26;20545;-68
2024/04/13 03:16:04;;;;;;;7.40;6.17;;;12.90;99.90;;;;;;5427562;26;20473;-71
2024/04/13 03:18:34;;;;;;;6.20;5.57;;;12.90;99.90;;;;;;5419230;26;20460;-70
2024/04/13 03:21:00;;;;;;;7.87;6.07;;;12.90;99.90;;;;;;5381024;26;20459;-71
2024/04/13 03:23:29;;;;;;;8.27;6.10;;;12.80;99.90;;;;;;5421423;26;20461;-70
2024/04/13 03:25:55;;;;;;;8.80;6.67;;;12.80;99.90;;;;;;5420458;26;20453;-70
2024/04/13 03:28:25;;;;;;;9.43;5.80;;;12.80;99.90;;;;;;5389531;26;20919;-71
2024/04/13 03:30:50;;;;;;;10.10;7.33;;;12.80;99.90;;;;;;5419364;26;20266;-70
2024/04/13 03:33:16;;;;;;;9.83;6.77;;;12.80;99.90;;;;;;5360285;26;20461;-70
2024/04/13 03:35:42;;;;;;;8.03;6.67;;;12.80;99.90;;;;;;5391947;26;20250;-70
2024/04/13 03:38:08;;;;;;;9.23;6.67;;;12.80;99.90;;;;;;5427441;26;20638;-71
2024/04/13 03:40:34;;;;;;;8.50;6.50;;;12.70;99.90;;;;;;5420740;26;20231;-70
2024/04/13 03:43:00;;;;;;;8.47;7.20;;;12.70;99.90;;;;;;5439546;26;20221;-71
2024/04/13 03:45:26;;;;;;;7.10;6.10;;;12.60;99.90;;;;;;5422892;26;20514;-70
2024/04/13 03:47:51;;;;;;;8.07;7.03;;;12.60;99.90;;;;;;5420642;26;20762;-70
2024/04/13 03:50:17;;;;;;;11.07;5.80;;;12.60;99.90;;;;;;5418922;26;20413;-70
2024/04/13 03:52:43;;;;;;;10.63;7.47;;;12.60;99.90;;;;;;5419789;26;20733;-69
2024/04/13 03:55:09;;;;;;;8.43;6.90;;;12.50;99.90;;;;;;5419173;26;20526;-70
2024/04/13 03:57:35;;;;;;;10.53;6.93;;;12.50;99.90;;;;;;5418465;26;20660;-70
2024/04/13 04:00:00;;;;;;;9.27;6.20;;;12.50;99.90;;;;;;5417981;26;20973;-70
2024/04/13 04:02:26;;;;;;;8.17;6.20;;;12.40;99.90;;;;;;5386852;26;20216;-70
2024/04/13 04:04:51;;;;;;;7.17;6.30;;;12.40;99.90;;;;;;5418045;26;20259;-69
2024/04/13 04:07:17;;;;;;;7.57;6.33;;;12.30;99.90;;;;;;5418535;26;20228;-68
2024/04/13 04:09:43;;;;;;;9.53;6.10;;;12.30;99.90;;;;;;5411017;26;20264;-70
2024/04/13 04:12:09;;;;;;;11.60;6.67;;;12.30;99.90;;;;;;5414829;26;20263;-70
2024/04/13 04:14:35;;;;;;;8.43;6.50;;;12.20;99.90;;;;;;5380262;26;20489;-70
2024/04/13 04:17:01;;;;;;;9.03;6.10;;;12.20;99.90;;;;;;5370017;26;20533;-70
2024/04/13 04:19:28;;;;;;;8.40;6.93;;;12.20;99.90;;;;;;5399660;26;20527;-70
2024/04/13 04:21:54;;;;;;;8.60;7.13;;;12.20;99.90;;;;;;5387828;26;20517;-69
2024/04/13 04:24:22;;;;;;;10.73;7.60;;;12.10;99.90;;;;;;5383459;26;20466;-69
2024/04/13 04:26:48;;;;;;;12.13;7.83;;;12.10;99.90;;;;;;5403902;26;20904;-69
2024/04/13 04:29:14;;;;;;;8.53;6.43;;;12.10;99.90;;;;;;5401402;26;20603;-69
2024/04/13 04:31:43;;;;;;;9.03;7.00;;;12.10;99.90;;;;;;5398095;26;20694;-70
2024/04/13 04:34:09;;;;;;;10.43;7.70;;;12.10;99.90;;;;;;5388186;26;20519;-70
2024/04/13 04:36:35;;;;;;;8.13;6.67;;;12.10;99.90;;;;;;5399782;26;20914;-71
2024/04/13 04:39:01;;;;;;;11.03;6.73;;;12.10;99.90;;;;;;5402435;26;20350;-70
2024/04/13 04:41:26;;;;;;;14.50;8.70;;;12.10;99.90;;;;;;5410967;26;20907;-71
2024/04/13 04:43:53;;;;;;;8.23;6.63;;;12.00;99.90;;;;;;5388824;26;20220;-70
2024/04/13 04:46:20;;;;;;;7.90;7.00;;;12.00;99.90;;;;;;5401301;26;20231;-71
2024/04/13 04:48:49;;;;;;;7.50;6.30;;;12.00;99.90;;;;;;5391666;26;22354;-70
2024/04/13 04:51:15;;;;;;;10.13;6.73;;;12.00;99.90;;;;;;5399471;26;20459;-69
2024/04/13 04:53:41;;;;;;;9.03;6.87;;;12.00;99.90;;;;;;5406579;26;20474;-71
2024/04/13 04:56:09;;;;;;;8.70;6.20;;;12.00;99.90;;;;;;5412878;26;20257;-70
2024/04/13 04:58:35;;;;;;;8.77;6.83;;;12.00;99.90;;;;;;5414679;26;20458;-70
2024/04/13 05:01:01;;;;;;;14.20;6.70;;;12.00;99.90;;;;;;5381170;26;20551;-69
2024/04/13 05:03:27;;;;;;;8.90;6.40;;;12.10;99.90;;;;;;5402882;26;20470;-69
2024/04/13 05:05:52;;;;;;;10.50;8.23;;;12.10;99.90;;;;;;5385628;26;20527;-69
2024/04/13 05:08:18;;;;;;;12.47;7.47;;;12.10;99.90;;;;;;5410238;26;20234;-69
2024/04/13 05:10:43;;;;;;;8.60;7.57;;;12.20;99.90;;;;;;5421290;26;20557;-71
2024/04/13 05:13:09;;;;;;;12.60;6.83;;;12.20;99.90;;;;;;5420918;26;20223;-69
2024/04/13 05:15:35;;;;;;;7.53;6.80;;;12.30;99.90;;;;;;5420345;26;20322;-70
2024/04/13 05:18:04;;;;;;;13.33;6.63;;;12.30;99.90;;;;;;5422753;26;20224;-69
2024/04/13 05:20:30;;;;;;;8.53;7.50;;;12.30;99.90;;;;;;5420945;26;20522;-69
2024/04/13 05:22:56;;;;;;;11.30;6.40;;;12.40;99.90;;;;;;5392292;26;20473;-69
2024/04/13 05:25:21;;;;;;;9.40;7.60;;;12.40;99.90;;;;;;5422369;26;20535;-70
2024/04/13 05:27:47;;;;;;;10.23;6.87;;;12.40;99.90;;;;;;5422393;26;20470;-70
2024/04/13 05:30:13;;;;;;;10.47;7.27;;;12.50;99.90;;;;;;5420901;26;20226;-69
2024/04/13 05:32:40;;;;;;;10.40;6.80;;;12.60;99.90;;;;;;5421073;26;20533;-70
2024/04/13 05:35:06;;;;;;;10.70;5.90;;;12.60;99.90;;;;;;5420084;26;20281;-70
2024/04/13 05:37:33;;;;;;;8.30;7.43;;;12.70;99.90;;;;;;5390222;26;20461;-69
2024/04/13 05:39:59;;;;;;;9.47;6.10;;;12.70;99.90;;;;;;5421092;26;20457;-69
2024/04/13 05:42:24;;;;;;;8.53;5.70;;;12.80;99.90;;;;;;5396521;26;20506;-70
2024/04/13 05:44:50;;;;;;;8.03;6.70;;;12.90;99.90;;;;;;5391262;26;20284;-70
2024/04/13 05:47:16;;;;;;;10.30;7.20;;;12.90;99.90;;;;;;5421587;26;20227;-72
2024/04/13 05:49:41;;;;;;;9.10;7.40;;;13.00;99.90;;;;;;5420997;26;20784;-70
2024/04/13 05:52:07;;;;;;;8.30;6.47;;;13.00;99.90;;;;;;5422306;26;20315;-70
2024/04/13 05:54:33;;;;;;;10.77;6.50;;;13.10;99.90;;;;;;5424009;26;20273;-70
2024/04/13 05:56:58;;;;;;;5.83;5.30;;;13.20;99.90;;;;;;5385761;26;20229;-71
2024/04/13 05:59:24;;;;;;;11.80;5.63;;;13.20;99.90;;;;;;5420260;26;20303;-72
2024/04/13 06:01:49;;;;;;;10.73;7.27;;;13.30;99.90;;;;;;5421285;26;20304;-72
2024/04/13 06:04:15;;;;;;;9.97;5.90;;;13.40;99.90;;;;;;5423386;26;20264;-71
2024/04/13 06:06:41;;;;;;;6.43;5.57;;;13.50;99.90;;;;;;5428863;26;20311;-70
2024/04/13 06:09:07;;;;;;;7.10;4.80;;;13.60;99.90;;;;;;5415618;26;20248;-70
2024/04/13 06:11:33;;;;;;;10.00;6.67;;;13.70;99.90;;;;;;5391762;26;20534;-71
2024/04/13 06:13:59;;;;;;;6.23;5.30;;;13.90;99.90;;;;;;5400356;26;20270;-72
2024/04/13 06:16:24;;;;;;;8.60;6.37;;;14.10;99.90;;;;;;5396604;26;20519;-69
2024/04/13 06:18:52;;;;;;;7.40;5.40;;;14.30;99.90;;;;;;5403338;26;20232;-71
2024/04/13 06:21:18;;;;;;;7.00;5.80;;;14.50;99.90;;;;;;5398649;26;20812;-71
2024/04/13 06:23:43;;;;;;;6.70;5.60;;;14.70;99.90;;;;;;5407978;26;20551;-71
2024/04/13 06:26:09;;;;;;;8.80;6.17;;;14.80;99.90;;;;;;5385853;26;21569;-72
2024/04/13 06:28:35;;;;;;;8.30;6.40;;;15.00;99.90;;;;;;5390692;26;20539;-72
2024/04/13 06:31:01;;;;;;;9.53;6.17;;;15.10;99.90;;;;;;5390736;26;20264;-70
2024/04/13 06:33:27;;;;;;;6.50;5.03;;;15.30;99.90;;;;;;5390492;26;20455;-70
2024/04/13 06:35:52;;;;;;;6.60;5.10;;;15.30;99.90;;;;;;5397492;26;20292;-71
2024/04/13 06:38:23;;;;;;;10.50;5.53;;;15.40;99.90;;;;;;5405751;26;20240;-71
2024/04/13 06:40:50;;;;;;;5.90;5.37;;;15.50;99.90;;;;;;5404496;26;20730;-69
2024/04/13 06:43:16;;;;;;;6.77;5.10;;;15.60;99.90;;;;;;5389345;26;20442;-70
2024/04/13 06:45:41;;;;;;;5.53;5.03;;;15.70;99.90;;;;;;5401676;26;20717;-71
2024/04/13 06:48:07;;;;;;;6.40;5.13;;;15.90;99.90;;;;;;5400989;26;20622;-72
2024/04/13 06:50:33;;;;;;;8.60;5.67;;;15.90;99.90;;;;;;5401917;26;20353;-68
2024/04/13 06:52:59;;;;;;;7.67;5.30;;;16.10;99.90;;;;;;5398347;26;20687;-69
2024/04/13 06:55:25;;;;;;;7.70;5.90;;;16.20;99.90;;;;;;5401379;26;20458;-70
2024/04/13 06:57:50;;;;;;;7.97;5.57;;;16.20;99.90;;;;;;5381239;26;20666;-72
2024/04/13 07:00:16;;;;;;;6.63;5.83;;;16.20;99.90;;;;;;5372327;26;20236;-72
2024/04/13 07:02:44;;;;;;;7.73;5.50;;;16.20;99.90;;;;;;5412333;26;20286;-70
2024/04/13 07:05:10;;;;;;;8.03;5.90;;;16.20;99.90;;;;;;5395438;26;20260;-70
2024/04/13 07:07:36;;;;;;;6.40;4.97;;;16.20;99.90;;;;;;5410116;26;20687;-71
2024/04/13 07:10:03;;;;;;;7.93;5.83;;;16.30;99.90;;;;;;5390174;26;20482;-72
2024/04/13 07:12:29;;;;;;;6.27;5.60;;;16.40;99.90;;;;;;5421449;26;20443;-73
2024/04/13 07:14:54;;;;;;;6.53;5.30;;;16.50;99.90;;;;;;5422151;26;20503;-71
2024/04/13 07:17:20;;;;;;;5.63;5.03;;;16.60;99.90;;;;;;5422378;26;20352;-73
2024/04/13 07:19:45;;;;;;;8.33;6.23;;;16.60;99.90;;;;;;5422697;26;20216;-71
2024/04/13 07:22:11;;;;;;;7.10;5.50;;;16.70;99.90;;;;;;5424244;26;21451;-69
2024/04/13 07:24:37;;;;;;;7.40;5.60;;;16.70;99.90;;;;;;5437576;26;20219;-75
2024/04/13 07:27:03;;;;;;;11.07;5.20;;;16.70;99.90;;;;;;5422741;26;20254;-71
2024/04/13 07:29:29;;;;;;;5.77;4.67;;;16.70;99.90;;;;;;5363591;26;20467;-71
2024/04/13 07:31:54;;;;;;;5.50;4.90;;;16.80;99.90;;;;;;5427083;26;20460;-70
2024/04/13 07:34:20;;;;;;;11.03;6.30;;;16.90;99.90;;;;;;5422058;26;20269;-73
2024/04/13 07:36:46;;;;;;;6.37;5.50;;;17.00;99.90;;;;;;5390374;26;20228;-71
2024/04/13 07:39:12;;;;;;;6.60;4.73;;;17.20;99.90;;;;;;5421867;26;20268;-73
2024/04/13 07:41:38;;;;;;;7.57;6.10;;;17.30;99.90;;;;;;5422585;26;20550;-71
2024/04/13 07:44:04;;;;;;;7.83;5.30;;;17.40;99.90;;;;;;5422080;26;20679;-71
2024/04/13 07:46:31;;;;;;;5.90;4.90;;;17.50;99.90;;;;;;5420284;26;20476;-71
2024/04/13 07:48:56;;;;;;;7.30;4.40;;;17.70;99.90;;;;;;5420881;26;20272;-73
2024/04/13 07:51:22;;;;;;;8.40;5.03;;;17.90;99.90;;;;;;5388790;26;20471;-71
2024/04/13 07:53:48;;;;;;;6.20;4.87;;;18.00;99.90;;;;;;5432998;26;20514;-71
2024/04/13 07:56:13;;;;;;;7.00;4.53;;;18.10;99.90;;;;;;5395436;26;20562;-72
2024/04/13 07:58:40;;;;;;;5.50;4.23;;;18.10;99.90;;;;;;5390961;26;20271;-72
2024/04/13 08:01:06;;;;;;;8.10;4.33;;;18.20;99.90;;;;;;5426631;26;20219;-72
2024/04/13 08:03:31;;;;;;;5.53;4.80;;;18.30;99.90;;;;;;5427663;26;20513;-73
2024/04/13 08:05:57;;;;;;;5.40;4.90;;;18.40;99.90;;;;;;5426499;26;20266;-71
2024/04/13 08:08:23;;;;;;;6.43;4.40;;;18.50;99.90;;;;;;5386563;26;20275;-71
2024/04/13 08:10:48;;;;;;;7.17;4.67;;;18.50;99.90;;;;;;5421773;26;20219;-72
2024/04/13 08:13:15;;;;;;;5.40;4.87;;;18.60;99.90;;;;;;5422598;26;20484;-74
2024/04/13 08:15:41;;;;;;;6.87;4.40;;;18.60;99.90;;;;;;5422404;26;20224;-73
2024/04/13 08:18:07;;;;;;;8.93;4.90;;;18.70;99.90;;;;;;5361594;26;20465;-73
2024/04/13 08:20:33;;;;;;;5.00;4.50;;;18.90;99.90;;;;;;5430986;26;20224;-73
2024/04/13 08:23:00;;;;;;;7.00;4.90;;;19.10;99.90;;;;;;5420356;26;20466;-74
2024/04/13 08:25:26;;;;;;;4.63;3.80;;;19.30;99.90;;;;;;5425092;26;20510;-73
2024/04/13 08:27:51;;;;;;;5.77;5.10;;;19.40;99.90;;;;;;5422220;26;20461;-71
2024/04/13 08:30:17;;;;;;;9.83;4.50;;;19.60;99.90;;;;;;5421592;26;21003;-71
2024/04/13 08:32:45;;;;;;;7.43;4.63;;;19.70;99.90;;;;;;5421013;26;20256;-72
2024/04/13 08:35:10;;;;;;;6.80;4.33;;;19.90;99.90;;;;;;5420814;26;20220;-73
2024/04/13 08:37:36;;;;;;;5.90;4.17;;;20.00;99.90;;;;;;5420739;26;20908;-74
2024/04/13 08:40:03;;;;;;;4.33;3.90;;;20.20;99.90;;;;;;5421496;26;20220;-71
2024/04/13 08:42:34;;;;;;;7.77;5.57;;;20.30;99.90;;;;;;5423779;26;20319;-73
2024/04/13 08:45:00;;;;;;;6.40;5.80;;;20.40;99.90;;;;;;5424322;26;20527;-73
2024/04/13 08:47:27;;;;;;;6.30;4.30;;;20.40;99.90;;;;;;5425529;26;20466;-73
2024/04/13 08:49:57;;;;;;;5.80;4.90;;;20.50;99.90;;;;;;5425236;26;20332;-73
2024/04/13 08:52:25;;;;;;;7.13;4.67;;;20.60;99.90;;;;;;5426695;26;20460;-73
2024/04/13 08:54:51;;;;;;;5.17;3.50;;;20.70;99.90;;;;;;5425883;26;20493;-72
2024/04/13 08:57:24;;;;;;;4.50;3.40;;;20.90;99.90;;;;;;5424529;26;20485;-74
2024/04/13 08:59:51;;;;;;;6.20;4.20;;;21.00;99.90;;;;;;5429099;26;20698;-72
2024/04/13 09:02:21;;;;;;;5.83;4.70;;;21.20;99.90;;;;;;5428475;26;20532;-72
2024/04/13 09:04:53;;;;;;;6.07;3.70;;;21.30;99.90;;;;;;5412164;26;20534;-72
2024/04/13 09:07:20;;;;;;;4.70;4.30;;;21.40;99.90;;;;;;5417557;26;20529;-72
2024/04/13 09:09:48;;;;;;;6.17;4.13;;;21.40;99.90;;;;;;5380443;26;20554;-74
2024/04/13 09:12:14;;;;;;;7.50;4.60;;;21.40;99.90;;;;;;5375087;26;20507;-73
2024/04/13 09:14:40;;;;;;;6.87;4.53;;;21.40;99.90;;;;;;5389493;26;20532;-74
2024/04/13 09:17:07;;;;;;;7.97;4.47;;;21.60;99.90;;;;;;5389481;26;20451;-73
2024/04/13 09:19:32;;;;;;;8.90;5.00;;;21.60;99.90;;;;;;5389123;26;20505;-72
2024/04/13 09:21:58;;;;;;;8.53;4.80;;;21.70;98.90;;;;;;5371094;26;20458;-74
2024/04/13 09:24:24;;;;;;;5.20;3.70;;;21.80;98.30;;;;;;5389481;26;20221;-73
2024/04/13 09:26:51;;;;;;;4.20;3.30;;;22.00;97.40;;;;;;5389932;26;20225;-71
2024/04/13 09:29:27;;;;;;;9.47;4.57;;;22.20;97.00;;;;;;5390251;26;20233;-74
2024/04/13 09:31:53;;;;;;;4.43;3.60;;;22.20;94.90;;;;;;5387424;26;20487;-73
2024/04/13 09:34:19;;;;;;;6.10;4.23;;;22.20;94.10;;;;;;5358575;26;20458;-74
2024/04/13 09:36:47;;;;;;;8.60;4.03;;;22.30;93.50;;;;;;5389564;26;20467;-74
2024/04/13 09:39:20;;;;;;;5.53;3.40;;;22.40;93.40;;;;;;5391812;26;20466;-72
2024/04/13 09:41:46;;;;;;;4.10;3.17;;;22.60;92.60;;;;;;5358089;26;20505;-74
2024/04/13 09:44:11;;;;;;;3.40;2.80;;;22.60;91.30;;;;;;5389364;26;20470;-72
2024/04/13 09:46:37;;;;;;;9.10;3.67;;;22.70;91.10;;;;;;5393531;26;20526;-74
2024/04/13 09:49:03;;;;;;;5.00;3.43;;;22.90;90.30;;;;;;5390734;26;20311;-73
2024/04/13 09:51:29;;;;;;;4.80;3.10;;;23.00;89.90;;;;;;5391009;26;20764;-75
2024/04/13 09:53:55;;;;;;;14.67;4.27;;;23.30;88.80;;;;;;5390774;26;20284;-73
2024/04/13 09:56:21;;;;;;;3.53;2.37;;;23.50;86.00;;;;;;5388519;26;20467;-73
2024/04/13 09:58:49;;;;;;;8.00;3.30;;;23.60;85.20;;;;;;5388208;26;20221;-74
2024/04/13 10:01:15;;;;;;;3.47;3.00;;;23.60;83.80;;;;;;5389777;26;20513;-77
2024/04/13 10:03:41;;;;;;;8.10;3.30;;;23.70;83.60;;;;;;5359401;26;20561;-75
2024/04/13 10:06:14;;;;;;;3.53;2.63;;;23.80;82.10;;;;;;5392586;26;20784;-74
2024/04/13 10:08:41;;;;;;;5.30;3.10;;;23.90;81.30;;;;;;5398045;26;20515;-73
2024/04/13 10:11:08;;;;;;;3.40;2.67;;;24.00;79.20;;;;;;5424818;26;20967;-73
2024/04/13 10:13:39;;;;;;;4.00;2.47;;;24.00;78.20;;;;;;5426868;26;20546;-74
2024/04/13 10:16:05;;;;;;;4.40;2.40;;;24.00;77.10;;;;;;5425861;26;20453;-75
2024/04/13 10:18:31;;;;;;;5.23;3.00;;;24.00;76.70;;;;;;5396428;26;20541;-74
2024/04/13 10:21:02;;;;;;;2.97;2.67;;;24.00;76.50;;;;;;5426847;26;20473;-73
2024/04/13 10:23:36;;;;;;;4.77;3.17;;;24.00;75.90;;;;;;5427841;26;20297;-73
2024/04/13 10:26:01;;;;;;;5.33;3.23;;;24.00;75.20;;;;;;5426071;26;20456;-74
2024/04/13 10:28:27;;;;;;;5.97;3.20;;;24.00;74.20;;;;;;5427544;26;20520;-73
2024/04/13 10:30:56;;;;;;;5.23;3.10;;;23.90;74.40;;;;;;5430578;26;20219;-75
2024/04/13 10:33:27;;;;;;;4.83;3.00;;;23.90;74.40;;;;;;5424678;26;20215;-75
2024/04/13 10:36:04;;;;;;;3.93;2.70;;;23.90;74.50;;;;;;5423997;26;20510;-74
2024/04/13 10:38:35;;;;;;;3.20;2.40;;;24.00;74.30;;;;;;5392983;26;20579;-73
2024/04/13 10:41:02;;;;;;;5.13;2.63;;;24.00;73.70;;;;;;5427753;26;20450;-72
2024/04/13 10:43:29;;;;;;;2.87;2.57;;;24.00;71.50;;;;;;5364828;26;20951;-77
2024/04/13 10:45:56;;;;;;;3.10;2.47;;;23.90;71.70;;;;;;5424910;26;20434;-74
2024/04/13 10:48:22;;;;;;;6.30;3.30;;;23.90;71.50;;;;;;5429448;26;20535;-74
2024/04/13 10:50:49;;;;;;;5.63;2.53;;;24.00;70.50;;;;;;5395132;26;20513;-78
2024/04/13 10:53:16;;;;;;;7.80;3.03;;;24.00;69.80;;;;;;5420764;26;20526;-75
2024/04/13 10:55:41;;;;;;;4.40;2.93;;;24.00;68.50;;;;;;5355259;26;20712;-74
2024/04/13 10:58:08;;;;;;;4.90;3.03;;;24.00;68.40;;;;;;5385802;26;20467;-75
2024/04/13 11:00:34;;;;;;;7.43;3.17;;;24.00;67.20;;;;;;5391272;26;20268;-76
2024/04/13 11:03:00;;;;;;;6.00;2.83;;;23.90;66.40;;;;;;5396809;26;20636;-74
2024/04/13 11:05:27;;;;;;;6.17;3.43;;;23.80;65.10;;;;;;5434817;26;20519;-75
2024/04/13 11:07:52;;;;;;;4.67;2.40;;;23.80;64.40;;;;;;5397204;26;20466;-75
2024/04/13 11:10:19;;;;;;;5.40;2.97;;;23.80;64.50;;;;;;5428244;26;20521;-76
2024/04/13 11:12:46;;;;;;;3.40;2.70;;;23.80;63.60;;;;;;5392138;26;20334;-73
2024/04/13 11:15:12;;;;;;;7.77;2.57;;;23.80;63.50;;;;;;5387883;26;20477;-77
2024/04/13 11:17:38;;;;;;;3.03;2.33;;;23.90;62.90;;;;;;5381750;26;20477;-74
2024/04/13 11:20:04;;;;;;;7.73;3.03;;;24.00;61.90;;;;;;5419151;26;20259;-77
2024/04/13 11:22:30;;;;;;;6.20;2.90;;;24.10;61.60;;;;;;5424523;26;20220;-77
2024/04/13 11:24:56;;;;;;;3.40;2.20;;;24.10;61.50;;;;;;5424969;26;20514;-75
2024/04/13 11:27:22;;;;;;;5.30;3.03;;;24.20;61.90;;;;;;5379444;26;20443;-74
2024/04/13 11:29:51;;;;;;;4.77;2.80;;;24.20;62.00;;;;;;5395366;26;20259;-74
2024/04/13 11:32:18;;;;;;;5.53;2.70;;;24.30;62.30;;;;;;5425739;26;20429;-76
2024/04/13 11:34:44;;;;;;;5.47;3.60;;;24.40;62.40;;;;;;5427403;26;20469;-75
2024/04/13 11:37:10;;;;;;;3.30;3.00;;;24.50;62.30;;;;;;5425823;26;20477;-77
2024/04/13 11:39:37;;;;;;;5.83;3.23;;;24.60;61.30;;;;;;5395470;26;20465;-76
2024/04/13 11:42:06;;;;;;;7.00;4.73;;;24.60;60.80;;;;;;5428418;26;20469;-75
2024/04/13 11:44:31;;;;;;;4.77;3.70;;;24.60;61.20;;;;;;5423279;26;20774;-75
2024/04/13 11:46:59;;;;;;;7.53;3.03;;;24.70;61.30;;;;;;5392262;26;20465;-75
2024/04/13 11:49:26;;;;;;;5.33;2.83;;;24.70;61.40;;;;;;5389868;26;20321;-73
2024/04/13 11:51:52;;;;;;;5.00;2.93;;;24.70;60.80;;;;;;5367267;26;20465;-72
2024/04/13 11:54:17;;;;;;;5.07;3.00;;;24.50;60.90;;;;;;5420909;26;20510;-74
2024/04/13 11:56:43;;;;;;;3.63;2.60;;;24.60;61.50;;;;;;5424830;26;20239;-76
2024/04/13 11:59:12;;;;;;;5.57;2.90;;;24.70;61.30;;;;;;5388163;26;20225;-73
2024/04/13 12:01:40;;;;;;;4.33;3.00;;;24.90;61.10;;;;;;5413658;26;20503;-75
2024/04/13 12:04:06;;;;;;;6.90;3.93;;;25.10;60.60;;;;;;5388307;26;20459;-73
2024/04/13 12:06:32;;;;;;;3.47;2.97;;;25.30;59.00;;;;;;5424170;26;20509;-76
2024/04/13 12:08:58;;;;;;;4.90;2.37;;;25.40;58.30;;;;;;5425670;26;20500;-78
2024/04/13 12:11:30;;;;;;;5.23;2.50;;;25.40;57.70;;;;;;5425952;26;20449;-76
2024/04/13 12:14:03;;;;;;;4.10;2.90;;;25.40;57.20;;;;;;5425778;26;20504;-75
2024/04/13 12:16:30;;;;;;;5.00;2.47;;;25.60;56.40;;;;;;5426381;26;20855;-75
2024/04/13 12:18:55;;;;;;;3.87;2.30;;;25.60;55.80;;;;;;5427799;26;20422;-75
2024/04/13 12:21:21;;;;;;;3.27;2.07;;;25.50;55.70;;;;;;5428284;26;20434;-74
2024/04/13 12:23:47;;;;;;;4.50;3.00;;;25.60;55.70;;;;;;5397621;26;20219;-75
2024/04/13 12:26:13;;;;;;;7.77;2.60;;;25.70;55.00;;;;;;5390382;26;20503;-76
2024/04/13 12:28:38;;;;;;;2.43;2.00;;;25.70;54.80;;;;;;5424613;26;20514;-76
2024/04/13 12:31:04;;;;;;;3.87;2.53;;;25.60;54.60;;;;;;5398654;26;20227;-76
2024/04/13 12:33:30;;;;;;;2.73;2.10;;;25.60;54.30;;;;;;5398270;26;20463;-76
2024/04/13 12:35:56;;;;;;;3.93;2.37;;;25.60;53.80;;;;;;5398453;26;20225;-76
2024/04/13 12:38:22;;;;;;;5.40;1.97;;;25.60;53.90;;;;;;5427991;26;20545;-75
2024/04/13 12:40:48;;;;;;;2.50;2.10;;;25.60;54.00;;;;;;5397148;26;20224;-74
2024/04/13 12:43:14;;;;;;;2.80;2.20;;;25.60;54.00;;;;;;5397709;26;20500;-75